sensor_id;sensor_type;location;lat;lon;timestamp;P1;durP1;ratioP1;P2;durP2;ratioP2
69534;SDS011;56754;51.568;5.048;2022-08-21T00:00:55;5.70;;;1.80;;
69534;SDS011;56754;51.568;5.048;2022-08-21T00:03:20;3.85;;;1.40;;
69534;SDS011;56754;51.568;5.048;2022-08-21T00:05:48;4.27;;;1.50;;
69534;SDS011;56754;51.568;5.048;2022-08-21T00:08:14;3.95;;;1.40;;
69534;SDS011;56754;51.568;5.048;2022-08-21T00:10:41;4.60;;;1.47;;
69534;SDS011;56754;51.568;5.048;2022-08-21T00:13:07;5.55;;;1.50;;
69534;SDS011;56754;51.568;5.048;2022-08-21T00:15:34;4.30;;;1.42;;
69534;SDS011;56754;51.568;5.048;2022-08-21T00:18:05;6.55;;;1.52;;
69534;SDS011;56754;51.568;5.048;2022-08-21T00:20:33;4.80;;;1.40;;
69534;SDS011;56754;51.568;5.048;2022-08-21T00:22:58;4.73;;;1.63;;
69534;SDS011;56754;51.568;5.048;2022-08-21T00:25:24;4.37;;;1.50;;
69534;SDS011;56754;51.568;5.048;2022-08-21T00:27:49;4.07;;;1.40;;
69534;SDS011;56754;51.568;5.048;2022-08-21T00:30:15;3.70;;;1.40;;
69534;SDS011;56754;51.568;5.048;2022-08-21T00:32:42;5.28;;;1.70;;
69534;SDS011;56754;51.568;5.048;2022-08-21T00:35:08;4.43;;;1.40;;
69534;SDS011;56754;51.568;5.048;2022-08-21T00:37:37;3.75;;;1.35;;
69534;SDS011;56754;51.568;5.048;2022-08-21T00:40:03;4.68;;;1.40;;
69534;SDS011;56754;51.568;5.048;2022-08-21T00:42:31;4.53;;;1.60;;
69534;SDS011;56754;51.568;5.048;2022-08-21T00:44:56;5.07;;;1.48;;
69534;SDS011;56754;51.568;5.048;2022-08-21T00:47:22;5.20;;;1.60;;
69534;SDS011;56754;51.568;5.048;2022-08-21T00:49:47;4.50;;;1.57;;
69534;SDS011;56754;51.568;5.048;2022-08-21T00:52:15;4.47;;;1.70;;
69534;SDS011;56754;51.568;5.048;2022-08-21T00:54:44;4.60;;;1.77;;
69534;SDS011;56754;51.568;5.048;2022-08-21T00:57:13;6.57;;;1.75;;
69534;SDS011;56754;51.568;5.048;2022-08-21T00:59:41;4.80;;;1.70;;
69534;SDS011;56754;51.568;5.048;2022-08-21T01:02:10;4.55;;;1.67;;
69534;SDS011;56754;51.568;5.048;2022-08-21T01:04:36;4.83;;;1.90;;
69534;SDS011;56754;51.568;5.048;2022-08-21T01:07:02;4.85;;;1.75;;
69534;SDS011;56754;51.568;5.048;2022-08-21T01:09:27;6.03;;;1.80;;
69534;SDS011;56754;51.568;5.048;2022-08-21T01:11:53;5.03;;;1.67;;
69534;SDS011;56754;51.568;5.048;2022-08-21T01:14:19;6.10;;;1.77;;
69534;SDS011;56754;51.568;5.048;2022-08-21T01:16:46;5.55;;;1.85;;
69534;SDS011;56754;51.568;5.048;2022-08-21T01:19:14;5.57;;;1.50;;
69534;SDS011;56754;51.568;5.048;2022-08-21T01:21:41;4.13;;;1.70;;
69534;SDS011;56754;51.568;5.048;2022-08-21T01:24:07;4.40;;;1.77;;
69534;SDS011;56754;51.568;5.048;2022-08-21T01:26:34;5.17;;;1.80;;
69534;SDS011;56754;51.568;5.048;2022-08-21T01:29:15;5.63;;;1.80;;
69534;SDS011;56754;51.568;5.048;2022-08-21T01:31:47;5.05;;;1.98;;
69534;SDS011;56754;51.568;5.048;2022-08-21T01:34:12;4.97;;;1.73;;
69534;SDS011;56754;51.568;5.048;2022-08-21T01:36:38;4.80;;;2.00;;
69534;SDS011;56754;51.568;5.048;2022-08-21T01:39:04;5.20;;;1.75;;
69534;SDS011;56754;51.568;5.048;2022-08-21T01:41:30;3.83;;;1.70;;
69534;SDS011;56754;51.568;5.048;2022-08-21T01:43:55;5.93;;;1.80;;
69534;SDS011;56754;51.568;5.048;2022-08-21T01:46:21;5.70;;;2.00;;
69534;SDS011;56754;51.568;5.048;2022-08-21T01:48:46;4.30;;;1.70;;
69534;SDS011;56754;51.568;5.048;2022-08-21T01:51:11;6.10;;;1.80;;
69534;SDS011;56754;51.568;5.048;2022-08-21T01:53:37;4.37;;;1.90;;
69534;SDS011;56754;51.568;5.048;2022-08-21T01:56:04;3.95;;;1.60;;
69534;SDS011;56754;51.568;5.048;2022-08-21T01:58:30;4.67;;;1.77;;
69534;SDS011;56754;51.568;5.048;2022-08-21T02:00:56;6.63;;;1.73;;
69534;SDS011;56754;51.568;5.048;2022-08-21T02:03:21;4.70;;;1.60;;
69534;SDS011;56754;51.568;5.048;2022-08-21T02:05:46;6.63;;;1.97;;
69534;SDS011;56754;51.568;5.048;2022-08-21T02:08:11;5.20;;;1.90;;
69534;SDS011;56754;51.568;5.048;2022-08-21T02:10:37;5.07;;;1.80;;
69534;SDS011;56754;51.568;5.048;2022-08-21T02:13:02;5.63;;;1.60;;
69534;SDS011;56754;51.568;5.048;2022-08-21T02:15:28;5.55;;;1.90;;
69534;SDS011;56754;51.568;5.048;2022-08-21T02:17:55;4.20;;;1.60;;
69534;SDS011;56754;51.568;5.048;2022-08-21T02:20:42;3.97;;;1.67;;
69534;SDS011;56754;51.568;5.048;2022-08-21T02:23:10;4.47;;;1.98;;
69534;SDS011;56754;51.568;5.048;2022-08-21T02:25:36;5.03;;;1.70;;
69534;SDS011;56754;51.568;5.048;2022-08-21T02:28:03;4.63;;;1.60;;
69534;SDS011;56754;51.568;5.048;2022-08-21T02:30:33;5.60;;;2.00;;
69534;SDS011;56754;51.568;5.048;2022-08-21T02:33:00;6.40;;;2.10;;
69534;SDS011;56754;51.568;5.048;2022-08-21T02:35:25;4.25;;;1.60;;
69534;SDS011;56754;51.568;5.048;2022-08-21T02:38:02;4.83;;;1.80;;
69534;SDS011;56754;51.568;5.048;2022-08-21T02:40:33;4.55;;;1.58;;
69534;SDS011;56754;51.568;5.048;2022-08-21T02:43:02;4.35;;;1.80;;
69534;SDS011;56754;51.568;5.048;2022-08-21T02:45:29;4.22;;;1.70;;
69534;SDS011;56754;51.568;5.048;2022-08-21T02:47:56;3.95;;;1.63;;
69534;SDS011;56754;51.568;5.048;2022-08-21T02:50:28;6.03;;;1.90;;
69534;SDS011;56754;51.568;5.048;2022-08-21T02:52:56;5.28;;;1.88;;
69534;SDS011;56754;51.568;5.048;2022-08-21T02:55:23;4.97;;;2.00;;
69534;SDS011;56754;51.568;5.048;2022-08-21T02:57:50;5.05;;;1.70;;
69534;SDS011;56754;51.568;5.048;2022-08-21T03:00:16;4.57;;;1.87;;
69534;SDS011;56754;51.568;5.048;2022-08-21T03:02:41;4.15;;;2.00;;
69534;SDS011;56754;51.568;5.048;2022-08-21T03:05:07;4.67;;;1.73;;
69534;SDS011;56754;51.568;5.048;2022-08-21T03:07:34;4.35;;;1.60;;
69534;SDS011;56754;51.568;5.048;2022-08-21T03:09:59;6.43;;;2.00;;
69534;SDS011;56754;51.568;5.048;2022-08-21T03:12:25;6.30;;;2.00;;
69534;SDS011;56754;51.568;5.048;2022-08-21T03:14:50;7.17;;;2.20;;
69534;SDS011;56754;51.568;5.048;2022-08-21T03:17:15;5.93;;;2.20;;
69534;SDS011;56754;51.568;5.048;2022-08-21T03:19:41;7.43;;;2.20;;
69534;SDS011;56754;51.568;5.048;2022-08-21T03:22:06;5.03;;;1.70;;
69534;SDS011;56754;51.568;5.048;2022-08-21T03:24:31;5.87;;;2.00;;
69534;SDS011;56754;51.568;5.048;2022-08-21T03:26:57;4.47;;;1.87;;
69534;SDS011;56754;51.568;5.048;2022-08-21T03:29:22;6.67;;;2.10;;
69534;SDS011;56754;51.568;5.048;2022-08-21T03:31:47;5.82;;;1.90;;
69534;SDS011;56754;51.568;5.048;2022-08-21T03:34:13;5.60;;;2.10;;
69534;SDS011;56754;51.568;5.048;2022-08-21T03:36:38;4.77;;;2.10;;
69534;SDS011;56754;51.568;5.048;2022-08-21T03:39:03;4.73;;;1.90;;
69534;SDS011;56754;51.568;5.048;2022-08-21T03:41:29;4.03;;;1.73;;
69534;SDS011;56754;51.568;5.048;2022-08-21T03:43:54;4.97;;;1.97;;
69534;SDS011;56754;51.568;5.048;2022-08-21T03:46:19;7.47;;;2.03;;
69534;SDS011;56754;51.568;5.048;2022-08-21T03:48:44;6.90;;;2.10;;
69534;SDS011;56754;51.568;5.048;2022-08-21T03:51:10;6.93;;;2.10;;
69534;SDS011;56754;51.568;5.048;2022-08-21T03:53:35;6.80;;;2.30;;
69534;SDS011;56754;51.568;5.048;2022-08-21T03:56:00;4.67;;;1.60;;
69534;SDS011;56754;51.568;5.048;2022-08-21T03:58:26;8.20;;;1.90;;
69534;SDS011;56754;51.568;5.048;2022-08-21T04:00:54;4.63;;;1.70;;
69534;SDS011;56754;51.568;5.048;2022-08-21T04:03:21;4.43;;;1.73;;
69534;SDS011;56754;51.568;5.048;2022-08-21T04:05:46;4.67;;;1.93;;
69534;SDS011;56754;51.568;5.048;2022-08-21T04:08:13;5.23;;;1.57;;
69534;SDS011;56754;51.568;5.048;2022-08-21T04:10:39;4.67;;;1.97;;
69534;SDS011;56754;51.568;5.048;2022-08-21T04:13:09;7.70;;;2.10;;
69534;SDS011;56754;51.568;5.048;2022-08-21T04:15:34;6.07;;;1.90;;
69534;SDS011;56754;51.568;5.048;2022-08-21T04:18:00;5.70;;;1.90;;
69534;SDS011;56754;51.568;5.048;2022-08-21T04:20:26;7.07;;;2.10;;
69534;SDS011;56754;51.568;5.048;2022-08-21T04:22:51;4.50;;;2.05;;
69534;SDS011;56754;51.568;5.048;2022-08-21T04:25:18;5.93;;;1.97;;
69534;SDS011;56754;51.568;5.048;2022-08-21T04:27:45;6.50;;;2.00;;
69534;SDS011;56754;51.568;5.048;2022-08-21T04:30:11;5.77;;;2.10;;
69534;SDS011;56754;51.568;5.048;2022-08-21T04:32:37;4.95;;;1.95;;
69534;SDS011;56754;51.568;5.048;2022-08-21T04:35:04;4.55;;;1.70;;
69534;SDS011;56754;51.568;5.048;2022-08-21T04:37:31;4.33;;;1.70;;
69534;SDS011;56754;51.568;5.048;2022-08-21T04:39:57;6.60;;;1.80;;
69534;SDS011;56754;51.568;5.048;2022-08-21T04:42:22;5.97;;;1.97;;
69534;SDS011;56754;51.568;5.048;2022-08-21T04:44:48;5.95;;;1.98;;
69534;SDS011;56754;51.568;5.048;2022-08-21T04:47:14;4.73;;;1.80;;
69534;SDS011;56754;51.568;5.048;2022-08-21T04:49:39;5.70;;;1.90;;
69534;SDS011;56754;51.568;5.048;2022-08-21T04:52:05;5.13;;;1.83;;
69534;SDS011;56754;51.568;5.048;2022-08-21T04:54:30;5.03;;;2.07;;
69534;SDS011;56754;51.568;5.048;2022-08-21T04:56:56;5.53;;;2.03;;
69534;SDS011;56754;51.568;5.048;2022-08-21T04:59:27;7.53;;;2.10;;
69534;SDS011;56754;51.568;5.048;2022-08-21T05:01:56;5.45;;;1.90;;
69534;SDS011;56754;51.568;5.048;2022-08-21T05:04:23;5.20;;;1.90;;
69534;SDS011;56754;51.568;5.048;2022-08-21T05:06:51;6.80;;;2.00;;
69534;SDS011;56754;51.568;5.048;2022-08-21T05:09:19;5.72;;;1.80;;
69534;SDS011;56754;51.568;5.048;2022-08-21T05:11:46;5.07;;;1.83;;
69534;SDS011;56754;51.568;5.048;2022-08-21T05:14:12;6.07;;;2.10;;
69534;SDS011;56754;51.568;5.048;2022-08-21T05:16:38;6.17;;;1.87;;
69534;SDS011;56754;51.568;5.048;2022-08-21T05:19:06;5.83;;;1.80;;
69534;SDS011;56754;51.568;5.048;2022-08-21T05:21:37;4.40;;;1.70;;
69534;SDS011;56754;51.568;5.048;2022-08-21T05:24:05;4.78;;;1.80;;
69534;SDS011;56754;51.568;5.048;2022-08-21T05:26:31;4.03;;;1.60;;
69534;SDS011;56754;51.568;5.048;2022-08-21T05:28:56;5.07;;;1.80;;
69534;SDS011;56754;51.568;5.048;2022-08-21T05:31:22;5.33;;;1.80;;
69534;SDS011;56754;51.568;5.048;2022-08-21T05:33:47;6.03;;;1.90;;
69534;SDS011;56754;51.568;5.048;2022-08-21T05:36:13;5.28;;;2.15;;
69534;SDS011;56754;51.568;5.048;2022-08-21T05:38:38;7.83;;;1.87;;
69534;SDS011;56754;51.568;5.048;2022-08-21T05:41:04;4.87;;;1.70;;
69534;SDS011;56754;51.568;5.048;2022-08-21T05:43:29;5.03;;;1.70;;
69534;SDS011;56754;51.568;5.048;2022-08-21T05:45:54;6.47;;;1.83;;
69534;SDS011;56754;51.568;5.048;2022-08-21T05:48:21;6.33;;;2.07;;
69534;SDS011;56754;51.568;5.048;2022-08-21T05:50:48;5.07;;;1.70;;
69534;SDS011;56754;51.568;5.048;2022-08-21T05:53:14;6.53;;;1.98;;
69534;SDS011;56754;51.568;5.048;2022-08-21T05:55:41;6.10;;;1.83;;
69534;SDS011;56754;51.568;5.048;2022-08-21T05:58:07;6.72;;;1.90;;
69534;SDS011;56754;51.568;5.048;2022-08-21T06:00:33;7.40;;;1.90;;
69534;SDS011;56754;51.568;5.048;2022-08-21T06:02:58;6.40;;;1.88;;
69534;SDS011;56754;51.568;5.048;2022-08-21T06:05:23;6.17;;;1.80;;
69534;SDS011;56754;51.568;5.048;2022-08-21T06:07:49;5.03;;;1.70;;
69534;SDS011;56754;51.568;5.048;2022-08-21T06:10:14;6.10;;;1.87;;
69534;SDS011;56754;51.568;5.048;2022-08-21T06:12:40;6.43;;;1.60;;
69534;SDS011;56754;51.568;5.048;2022-08-21T06:15:05;4.43;;;1.50;;
69534;SDS011;56754;51.568;5.048;2022-08-21T06:17:31;7.38;;;1.58;;
69534;SDS011;56754;51.568;5.048;2022-08-21T06:19:56;4.53;;;1.50;;
69534;SDS011;56754;51.568;5.048;2022-08-21T06:22:21;5.67;;;1.73;;
69534;SDS011;56754;51.568;5.048;2022-08-21T06:24:47;4.65;;;1.63;;
69534;SDS011;56754;51.568;5.048;2022-08-21T06:27:13;5.70;;;1.83;;
69534;SDS011;56754;51.568;5.048;2022-08-21T06:29:39;5.00;;;1.77;;
69534;SDS011;56754;51.568;5.048;2022-08-21T06:32:04;6.37;;;1.83;;
69534;SDS011;56754;51.568;5.048;2022-08-21T06:34:30;4.28;;;1.60;;
69534;SDS011;56754;51.568;5.048;2022-08-21T06:36:55;5.37;;;1.60;;
69534;SDS011;56754;51.568;5.048;2022-08-21T06:39:20;6.18;;;1.70;;
69534;SDS011;56754;51.568;5.048;2022-08-21T06:41:46;3.80;;;1.50;;
69534;SDS011;56754;51.568;5.048;2022-08-21T06:44:12;4.67;;;1.47;;
69534;SDS011;56754;51.568;5.048;2022-08-21T06:46:40;5.43;;;1.77;;
69534;SDS011;56754;51.568;5.048;2022-08-21T06:49:05;6.87;;;1.87;;
69534;SDS011;56754;51.568;5.048;2022-08-21T06:51:31;4.97;;;1.43;;
69534;SDS011;56754;51.568;5.048;2022-08-21T06:53:56;5.50;;;1.70;;
69534;SDS011;56754;51.568;5.048;2022-08-21T06:56:21;7.87;;;2.07;;
69534;SDS011;56754;51.568;5.048;2022-08-21T06:58:47;6.47;;;1.50;;
69534;SDS011;56754;51.568;5.048;2022-08-21T07:01:12;6.90;;;1.40;;
69534;SDS011;56754;51.568;5.048;2022-08-21T07:03:39;12.23;;;1.67;;
69534;SDS011;56754;51.568;5.048;2022-08-21T07:06:05;6.07;;;1.30;;
69534;SDS011;56754;51.568;5.048;2022-08-21T07:08:32;6.55;;;1.67;;
69534;SDS011;56754;51.568;5.048;2022-08-21T07:10:59;8.07;;;1.67;;
69534;SDS011;56754;51.568;5.048;2022-08-21T07:13:26;6.38;;;1.63;;
69534;SDS011;56754;51.568;5.048;2022-08-21T07:15:52;6.53;;;1.58;;
69534;SDS011;56754;51.568;5.048;2022-08-21T07:18:17;7.40;;;1.33;;
69534;SDS011;56754;51.568;5.048;2022-08-21T07:20:46;6.35;;;1.90;;
69534;SDS011;56754;51.568;5.048;2022-08-21T07:23:15;7.50;;;1.40;;
69534;SDS011;56754;51.568;5.048;2022-08-21T07:25:47;7.50;;;1.52;;
69534;SDS011;56754;51.568;5.048;2022-08-21T07:28:13;7.37;;;1.73;;
69534;SDS011;56754;51.568;5.048;2022-08-21T07:30:38;7.40;;;1.70;;
69534;SDS011;56754;51.568;5.048;2022-08-21T07:33:03;7.93;;;1.90;;
69534;SDS011;56754;51.568;5.048;2022-08-21T07:35:28;6.33;;;1.60;;
69534;SDS011;56754;51.568;5.048;2022-08-21T07:37:56;5.87;;;1.50;;
69534;SDS011;56754;51.568;5.048;2022-08-21T07:40:22;13.68;;;2.70;;
69534;SDS011;56754;51.568;5.048;2022-08-21T07:42:48;6.27;;;1.53;;
69534;SDS011;56754;51.568;5.048;2022-08-21T07:45:14;7.72;;;1.60;;
69534;SDS011;56754;51.568;5.048;2022-08-21T07:47:39;9.60;;;2.07;;
69534;SDS011;56754;51.568;5.048;2022-08-21T07:50:05;6.78;;;1.90;;
69534;SDS011;56754;51.568;5.048;2022-08-21T07:52:31;7.70;;;1.90;;
69534;SDS011;56754;51.568;5.048;2022-08-21T07:54:58;10.43;;;2.40;;
69534;SDS011;56754;51.568;5.048;2022-08-21T07:57:24;7.68;;;1.98;;
69534;SDS011;56754;51.568;5.048;2022-08-21T07:59:49;9.47;;;2.30;;
69534;SDS011;56754;51.568;5.048;2022-08-21T08:02:24;9.30;;;2.42;;
69534;SDS011;56754;51.568;5.048;2022-08-21T08:04:51;8.07;;;1.83;;
69534;SDS011;56754;51.568;5.048;2022-08-21T08:07:17;8.53;;;2.00;;
69534;SDS011;56754;51.568;5.048;2022-08-21T08:09:42;7.63;;;2.07;;
69534;SDS011;56754;51.568;5.048;2022-08-21T08:12:07;5.83;;;1.70;;
69534;SDS011;56754;51.568;5.048;2022-08-21T08:14:33;7.70;;;2.00;;
69534;SDS011;56754;51.568;5.048;2022-08-21T08:17:01;6.95;;;2.03;;
69534;SDS011;56754;51.568;5.048;2022-08-21T08:19:26;6.97;;;1.90;;
69534;SDS011;56754;51.568;5.048;2022-08-21T08:21:51;7.83;;;1.80;;
69534;SDS011;56754;51.568;5.048;2022-08-21T08:24:17;7.43;;;1.47;;
69534;SDS011;56754;51.568;5.048;2022-08-21T08:26:42;6.63;;;1.40;;
69534;SDS011;56754;51.568;5.048;2022-08-21T08:29:07;8.97;;;2.10;;
69534;SDS011;56754;51.568;5.048;2022-08-21T08:31:32;7.47;;;2.00;;
69534;SDS011;56754;51.568;5.048;2022-08-21T08:33:58;6.63;;;2.00;;
69534;SDS011;56754;51.568;5.048;2022-08-21T08:36:30;8.23;;;1.97;;
69534;SDS011;56754;51.568;5.048;2022-08-21T08:38:57;8.13;;;2.03;;
69534;SDS011;56754;51.568;5.048;2022-08-21T08:41:23;7.17;;;1.90;;
69534;SDS011;56754;51.568;5.048;2022-08-21T08:43:53;7.32;;;2.00;;
69534;SDS011;56754;51.568;5.048;2022-08-21T08:49:09;9.40;;;2.10;;
69534;SDS011;56754;51.568;5.048;2022-08-21T08:54:19;6.57;;;1.58;;
69534;SDS011;56754;51.568;5.048;2022-08-21T08:56:50;9.23;;;2.08;;
69534;SDS011;56754;51.568;5.048;2022-08-21T08:59:20;6.40;;;1.80;;
69534;SDS011;56754;51.568;5.048;2022-08-21T09:01:50;7.10;;;1.67;;
69534;SDS011;56754;51.568;5.048;2022-08-21T09:04:18;5.40;;;1.43;;
69534;SDS011;56754;51.568;5.048;2022-08-21T09:07:01;7.13;;;1.85;;
69534;SDS011;56754;51.568;5.048;2022-08-21T09:09:48;7.37;;;1.80;;
69534;SDS011;56754;51.568;5.048;2022-08-21T09:13:33;6.70;;;1.85;;
69534;SDS011;56754;51.568;5.048;2022-08-21T09:15:36;6.13;;;1.83;;
69534;SDS011;56754;51.568;5.048;2022-08-21T09:21:02;6.45;;;1.70;;
69534;SDS011;56754;51.568;5.048;2022-08-21T09:24:05;5.90;;;1.30;;
69534;SDS011;56754;51.568;5.048;2022-08-21T09:26:44;8.75;;;1.60;;
69534;SDS011;56754;51.568;5.048;2022-08-21T09:29:22;7.85;;;1.70;;
69534;SDS011;56754;51.568;5.048;2022-08-21T09:31:50;5.50;;;1.40;;
69534;SDS011;56754;51.568;5.048;2022-08-21T09:34:24;8.30;;;1.80;;
69534;SDS011;56754;51.568;5.048;2022-08-21T09:36:53;6.18;;;1.73;;
69534;SDS011;56754;51.568;5.048;2022-08-21T09:39:30;5.70;;;1.45;;
69534;SDS011;56754;51.568;5.048;2022-08-21T09:42:05;7.10;;;1.73;;
69534;SDS011;56754;51.568;5.048;2022-08-21T09:44:34;6.38;;;1.73;;
69534;SDS011;56754;51.568;5.048;2022-08-21T09:47:02;5.40;;;1.60;;
69534;SDS011;56754;51.568;5.048;2022-08-21T09:49:29;7.43;;;1.90;;
69534;SDS011;56754;51.568;5.048;2022-08-21T09:51:55;7.72;;;1.58;;
69534;SDS011;56754;51.568;5.048;2022-08-21T09:54:24;10.63;;;1.60;;
69534;SDS011;56754;51.568;5.048;2022-08-21T09:56:56;6.38;;;1.50;;
69534;SDS011;56754;51.568;5.048;2022-08-21T09:59:31;4.83;;;1.20;;
69534;SDS011;56754;51.568;5.048;2022-08-21T10:01:59;7.55;;;1.33;;
69534;SDS011;56754;51.568;5.048;2022-08-21T10:04:28;5.18;;;1.20;;
69534;SDS011;56754;51.568;5.048;2022-08-21T10:07:05;7.45;;;1.48;;
69534;SDS011;56754;51.568;5.048;2022-08-21T10:09:39;6.43;;;1.60;;
69534;SDS011;56754;51.568;5.048;2022-08-21T10:12:21;6.67;;;1.47;;
69534;SDS011;56754;51.568;5.048;2022-08-21T10:15:02;5.75;;;1.40;;
69534;SDS011;56754;51.568;5.048;2022-08-21T10:21:39;7.43;;;1.30;;
69534;SDS011;56754;51.568;5.048;2022-08-21T10:23:45;6.28;;;1.42;;
69534;SDS011;56754;51.568;5.048;2022-08-21T10:39:36;5.97;;;1.17;;
69534;SDS011;56754;51.568;5.048;2022-08-21T10:42:37;4.63;;;1.10;;
69534;SDS011;56754;51.568;5.048;2022-08-21T10:45:15;6.35;;;1.30;;
69534;SDS011;56754;51.568;5.048;2022-08-21T10:48:05;10.25;;;1.52;;
69534;SDS011;56754;51.568;5.048;2022-08-21T10:53:26;5.90;;;1.13;;
69534;SDS011;56754;51.568;5.048;2022-08-21T11:01:29;4.18;;;1.02;;
69534;SDS011;56754;51.568;5.048;2022-08-21T11:04:10;7.38;;;1.55;;
69534;SDS011;56754;51.568;5.048;2022-08-21T11:06:42;6.67;;;1.20;;
69534;SDS011;56754;51.568;5.048;2022-08-21T11:09:16;5.07;;;1.02;;
69534;SDS011;56754;51.568;5.048;2022-08-21T11:11:49;5.43;;;1.05;;
69534;SDS011;56754;51.568;5.048;2022-08-21T11:14:24;6.63;;;1.40;;
69534;SDS011;56754;51.568;5.048;2022-08-21T11:16:53;5.43;;;1.05;;
69534;SDS011;56754;51.568;5.048;2022-08-21T11:19:28;4.97;;;1.20;;
69534;SDS011;56754;51.568;5.048;2022-08-21T11:22:23;6.00;;;1.10;;
69534;SDS011;56754;51.568;5.048;2022-08-21T11:25:00;6.57;;;1.50;;
69534;SDS011;56754;51.568;5.048;2022-08-21T11:27:38;8.95;;;1.50;;
69534;SDS011;56754;51.568;5.048;2022-08-21T11:30:09;4.53;;;1.23;;
69534;SDS011;56754;51.568;5.048;2022-08-21T11:45:55;8.67;;;1.40;;
69534;SDS011;56754;51.568;5.048;2022-08-21T11:51:20;5.50;;;1.27;;
69534;SDS011;56754;51.568;5.048;2022-08-21T11:54:03;5.70;;;1.50;;
69534;SDS011;56754;51.568;5.048;2022-08-21T11:56:37;6.50;;;1.20;;
69534;SDS011;56754;51.568;5.048;2022-08-21T11:59:09;7.23;;;1.00;;
69534;SDS011;56754;51.568;5.048;2022-08-21T12:01:41;4.97;;;1.15;;
69534;SDS011;56754;51.568;5.048;2022-08-21T12:04:16;8.55;;;1.20;;
69534;SDS011;56754;51.568;5.048;2022-08-21T12:06:47;5.75;;;1.20;;
69534;SDS011;56754;51.568;5.048;2022-08-21T12:12:12;5.70;;;1.27;;
69534;SDS011;56754;51.568;5.048;2022-08-21T12:14:44;5.55;;;1.30;;
69534;SDS011;56754;51.568;5.048;2022-08-21T12:17:19;7.97;;;1.60;;
69534;SDS011;56754;51.568;5.048;2022-08-21T12:19:56;5.68;;;1.20;;
69534;SDS011;56754;51.568;5.048;2022-08-21T12:22:47;5.72;;;1.38;;
69534;SDS011;56754;51.568;5.048;2022-08-21T12:25:17;6.15;;;1.15;;
69534;SDS011;56754;51.568;5.048;2022-08-21T12:27:49;5.35;;;1.17;;
69534;SDS011;56754;51.568;5.048;2022-08-21T12:30:33;6.37;;;1.20;;
69534;SDS011;56754;51.568;5.048;2022-08-21T12:33:02;5.70;;;1.15;;
69534;SDS011;56754;51.568;5.048;2022-08-21T12:35:39;4.40;;;1.00;;
69534;SDS011;56754;51.568;5.048;2022-08-21T12:38:09;5.82;;;1.17;;
69534;SDS011;56754;51.568;5.048;2022-08-21T12:40:42;4.50;;;1.10;;
69534;SDS011;56754;51.568;5.048;2022-08-21T12:43:16;4.30;;;1.03;;
69534;SDS011;56754;51.568;5.048;2022-08-21T12:45:48;5.60;;;1.27;;
69534;SDS011;56754;51.568;5.048;2022-08-21T12:51:06;4.45;;;0.88;;
69534;SDS011;56754;51.568;5.048;2022-08-21T12:53:36;5.07;;;1.10;;
69534;SDS011;56754;51.568;5.048;2022-08-21T12:56:10;5.80;;;1.07;;
69534;SDS011;56754;51.568;5.048;2022-08-21T12:58:44;6.75;;;1.00;;
69534;SDS011;56754;51.568;5.048;2022-08-21T13:03:49;4.75;;;1.00;;
69534;SDS011;56754;51.568;5.048;2022-08-21T13:06:16;4.90;;;1.20;;
69534;SDS011;56754;51.568;5.048;2022-08-21T13:08:44;4.80;;;1.10;;
69534;SDS011;56754;51.568;5.048;2022-08-21T13:11:11;5.53;;;1.42;;
69534;SDS011;56754;51.568;5.048;2022-08-21T13:13:41;6.43;;;1.20;;
69534;SDS011;56754;51.568;5.048;2022-08-21T13:16:07;7.38;;;1.40;;
69534;SDS011;56754;51.568;5.048;2022-08-21T13:18:35;5.13;;;1.30;;
69534;SDS011;56754;51.568;5.048;2022-08-21T13:23:39;6.63;;;1.50;;
69534;SDS011;56754;51.568;5.048;2022-08-21T13:26:18;6.57;;;1.20;;
69534;SDS011;56754;51.568;5.048;2022-08-21T13:28:45;3.95;;;0.90;;
69534;SDS011;56754;51.568;5.048;2022-08-21T13:31:12;6.00;;;1.20;;
69534;SDS011;56754;51.568;5.048;2022-08-21T13:33:41;5.00;;;1.30;;
69534;SDS011;56754;51.568;5.048;2022-08-21T13:36:09;5.20;;;1.27;;
69534;SDS011;56754;51.568;5.048;2022-08-21T13:38:39;7.18;;;1.55;;
69534;SDS011;56754;51.568;5.048;2022-08-21T13:43:43;5.72;;;1.08;;
69534;SDS011;56754;51.568;5.048;2022-08-21T13:46:11;5.30;;;1.20;;
69534;SDS011;56754;51.568;5.048;2022-08-21T13:48:38;5.47;;;1.30;;
69534;SDS011;56754;51.568;5.048;2022-08-21T13:51:04;4.82;;;0.82;;
69534;SDS011;56754;51.568;5.048;2022-08-21T13:53:31;5.95;;;1.23;;
69534;SDS011;56754;51.568;5.048;2022-08-21T13:55:59;7.33;;;1.30;;
69534;SDS011;56754;51.568;5.048;2022-08-21T13:58:29;3.67;;;1.05;;
69534;SDS011;56754;51.568;5.048;2022-08-21T14:01:17;2.78;;;0.80;;
69534;SDS011;56754;51.568;5.048;2022-08-21T14:03:45;3.70;;;0.90;;
69534;SDS011;56754;51.568;5.048;2022-08-21T14:06:20;6.80;;;1.10;;
69534;SDS011;56754;51.568;5.048;2022-08-21T14:08:49;5.50;;;1.33;;
69534;SDS011;56754;51.568;5.048;2022-08-21T14:11:18;4.78;;;1.10;;
69534;SDS011;56754;51.568;5.048;2022-08-21T14:13:55;4.88;;;0.93;;
69534;SDS011;56754;51.568;5.048;2022-08-21T14:16:24;5.97;;;0.83;;
69534;SDS011;56754;51.568;5.048;2022-08-21T14:21:32;6.72;;;1.20;;
69534;SDS011;56754;51.568;5.048;2022-08-21T14:24:09;4.63;;;1.10;;
69534;SDS011;56754;51.568;5.048;2022-08-21T14:26:35;5.78;;;1.00;;
69534;SDS011;56754;51.568;5.048;2022-08-21T14:29:08;6.73;;;1.20;;
69534;SDS011;56754;51.568;5.048;2022-08-21T14:31:35;3.88;;;1.10;;
69534;SDS011;56754;51.568;5.048;2022-08-21T14:34:00;3.83;;;1.00;;
69534;SDS011;56754;51.568;5.048;2022-08-21T14:36:26;5.50;;;1.40;;
69534;SDS011;56754;51.568;5.048;2022-08-21T14:38:52;5.93;;;1.30;;
69534;SDS011;56754;51.568;5.048;2022-08-21T14:41:18;5.53;;;1.20;;
69534;SDS011;56754;51.568;5.048;2022-08-21T14:43:46;4.18;;;1.10;;
69534;SDS011;56754;51.568;5.048;2022-08-21T14:46:12;7.30;;;1.35;;
69534;SDS011;56754;51.568;5.048;2022-08-21T14:48:42;4.03;;;1.15;;
69534;SDS011;56754;51.568;5.048;2022-08-21T14:51:07;4.00;;;0.93;;
69534;SDS011;56754;51.568;5.048;2022-08-21T14:53:33;4.70;;;1.00;;
69534;SDS011;56754;51.568;5.048;2022-08-21T14:55:58;4.13;;;1.03;;
69534;SDS011;56754;51.568;5.048;2022-08-21T14:58:24;3.93;;;1.10;;
69534;SDS011;56754;51.568;5.048;2022-08-21T15:00:50;3.85;;;0.95;;
69534;SDS011;56754;51.568;5.048;2022-08-21T15:03:16;4.20;;;1.00;;
69534;SDS011;56754;51.568;5.048;2022-08-21T15:05:42;4.90;;;1.20;;
69534;SDS011;56754;51.568;5.048;2022-08-21T15:08:07;3.57;;;1.00;;
69534;SDS011;56754;51.568;5.048;2022-08-21T15:10:32;5.13;;;1.10;;
69534;SDS011;56754;51.568;5.048;2022-08-21T15:12:59;3.85;;;1.00;;
69534;SDS011;56754;51.568;5.048;2022-08-21T15:15:25;5.22;;;1.30;;
69534;SDS011;56754;51.568;5.048;2022-08-21T15:17:51;3.17;;;0.90;;
69534;SDS011;56754;51.568;5.048;2022-08-21T15:20:16;5.57;;;1.27;;
69534;SDS011;56754;51.568;5.048;2022-08-21T15:22:41;3.65;;;0.90;;
69534;SDS011;56754;51.568;5.048;2022-08-21T15:25:07;3.00;;;0.83;;
69534;SDS011;56754;51.568;5.048;2022-08-21T15:27:32;3.47;;;1.00;;
69534;SDS011;56754;51.568;5.048;2022-08-21T15:29:59;3.83;;;1.15;;
69534;SDS011;56754;51.568;5.048;2022-08-21T15:32:25;4.30;;;1.00;;
69534;SDS011;56754;51.568;5.048;2022-08-21T15:34:52;3.30;;;0.90;;
69534;SDS011;56754;51.568;5.048;2022-08-21T15:37:19;3.33;;;0.90;;
69534;SDS011;56754;51.568;5.048;2022-08-21T15:39:44;3.10;;;0.80;;
69534;SDS011;56754;51.568;5.048;2022-08-21T15:42:10;4.00;;;1.00;;
69534;SDS011;56754;51.568;5.048;2022-08-21T15:44:40;4.50;;;1.10;;
69534;SDS011;56754;51.568;5.048;2022-08-21T15:47:09;4.30;;;1.00;;
69534;SDS011;56754;51.568;5.048;2022-08-21T15:49:39;4.65;;;1.10;;
69534;SDS011;56754;51.568;5.048;2022-08-21T15:52:05;4.32;;;1.10;;
69534;SDS011;56754;51.568;5.048;2022-08-21T15:54:30;3.60;;;0.80;;
69534;SDS011;56754;51.568;5.048;2022-08-21T15:56:56;5.10;;;1.10;;
69534;SDS011;56754;51.568;5.048;2022-08-21T15:59:21;4.57;;;1.00;;
69534;SDS011;56754;51.568;5.048;2022-08-21T16:01:50;6.18;;;1.00;;